createdAt,value
2022-11-05T00:02:03.978Z,10.32
2022-11-05T00:04:50.407Z,10.30
2022-11-05T00:07:45.982Z,10.26
2022-11-05T00:10:35.953Z,10.25
2022-11-05T00:13:21.850Z,10.25
2022-11-05T00:16:07.998Z,10.24
2022-11-05T00:18:36.339Z,10.23
2022-11-05T00:21:03.593Z,10.21
2022-11-05T00:23:49.843Z,10.20
2022-11-05T00:26:16.628Z,10.13
2022-11-05T00:28:49.960Z,10.18
2022-11-05T00:31:18.195Z,10.21
2022-11-05T00:33:46.617Z,10.22
2022-11-05T00:36:14.082Z,10.20
2022-11-05T00:38:41.502Z,10.21
2022-11-05T00:41:08.420Z,10.21
2022-11-05T00:43:54.452Z,10.19
2022-11-05T00:46:21.306Z,10.18
2022-11-05T00:49:06.664Z,10.19
2022-11-05T00:51:36.262Z,10.22
2022-11-05T00:54:03.666Z,10.22
2022-11-05T00:56:31.016Z,10.22
2022-11-05T00:58:58.279Z,10.16
2022-11-05T01:01:26.434Z,10.19
2022-11-05T01:03:55.659Z,10.22
2022-11-05T01:06:23.231Z,10.20
2022-11-05T01:08:51.416Z,10.18
2022-11-05T01:11:35.229Z,10.18
2022-11-05T01:14:14.246Z,10.15
2022-11-05T01:16:41.165Z,10.15
2022-11-05T01:19:10.494Z,10.12
2022-11-05T01:21:38.121Z,10.18
2022-11-05T01:24:05.812Z,10.15
2022-11-05T01:26:34.140Z,10.14
2022-11-05T01:29:00.921Z,10.14
2022-11-05T01:31:29.850Z,10.08
2022-11-05T01:33:57.925Z,10.13
2022-11-05T01:36:25.335Z,10.06
2022-11-05T01:38:54.567Z,10.07
2022-11-05T01:41:21.355Z,10.07
2022-11-05T01:43:57.769Z,10.03
2022-11-05T01:46:36.231Z,9.90
2022-11-05T01:49:32.303Z,9.94
2022-11-05T01:52:04.545Z,9.90
2022-11-05T01:54:35.827Z,9.87
2022-11-05T01:57:10.382Z,9.84
2022-11-05T02:00:05.430Z,9.85
2022-11-05T02:02:40.164Z,9.82
2022-11-05T02:05:10.943Z,9.82
2022-11-05T02:07:38.643Z,9.75
2022-11-05T02:10:09.278Z,9.75
2022-11-05T02:12:39.315Z,9.79
2022-11-05T02:15:06.771Z,9.80
2022-11-05T02:17:48.949Z,9.74
2022-11-05T02:20:52.699Z,9.77
2022-11-05T02:24:11.651Z,9.83
2022-11-05T02:27:08.450Z,9.79
2022-11-05T02:30:09.980Z,9.79
2022-11-05T02:32:46.580Z,9.77
2022-11-05T02:35:56.896Z,9.72
2022-11-05T02:38:46.450Z,9.73
2022-11-05T02:41:26.054Z,9.75
2022-11-05T02:44:00.258Z,9.70
2022-11-05T02:46:39.260Z,9.66
2022-11-05T02:49:32.107Z,9.62
2022-11-05T02:52:05.203Z,9.64
2022-11-05T02:54:47.374Z,9.65
2022-11-05T02:57:15.464Z,9.64
2022-11-05T02:59:42.959Z,9.64
2022-11-05T03:02:14.582Z,9.67
2022-11-05T03:04:41.590Z,9.69
2022-11-05T03:07:17.484Z,9.70
2022-11-05T03:10:02.213Z,9.71
2022-11-05T03:12:52.578Z,9.68
2022-11-05T03:15:35.410Z,9.67
2022-11-05T03:18:29.074Z,9.73
2022-11-05T03:21:12.517Z,9.74
2022-11-05T03:23:46.395Z,9.73
2022-11-05T03:26:32.051Z,9.70
2022-11-05T03:29:10.672Z,9.70
2022-11-05T03:31:41.402Z,9.71
2022-11-05T03:34:12.704Z,9.68
2022-11-05T03:36:51.430Z,9.72
2022-11-05T03:39:28.010Z,9.71
2022-11-05T03:42:01.931Z,9.71
2022-11-05T03:44:35.497Z,9.71
2022-11-05T03:47:10.121Z,9.73
2022-11-05T03:49:50.404Z,9.77
2022-11-05T03:52:20.588Z,9.73
2022-11-05T03:54:48.283Z,9.78
2022-11-05T03:57:30.688Z,9.79
2022-11-05T03:59:59.895Z,9.80
2022-11-05T04:02:28.059Z,9.80
2022-11-05T04:04:57.993Z,9.82
2022-11-05T04:07:44.318Z,9.85
2022-11-05T04:10:34.023Z,9.84
2022-11-05T04:13:22.504Z,9.84
2022-11-05T04:16:08.156Z,9.84
2022-11-05T04:18:36.571Z,9.88
2022-11-05T04:21:24.304Z,9.86
2022-11-05T04:24:11.112Z,9.89
2022-11-05T04:26:44.893Z,9.86
2022-11-05T04:29:30.669Z,9.85
2022-11-05T04:31:58.490Z,9.85
2022-11-05T04:34:25.827Z,9.84
2022-11-05T04:36:53.452Z,9.83
2022-11-05T04:39:21.237Z,9.85
2022-11-05T04:41:50.363Z,9.83
2022-11-05T04:44:21.169Z,9.83
2022-11-05T04:46:48.839Z,9.86
2022-11-05T04:49:19.719Z,9.87
2022-11-05T04:51:47.385Z,9.83
2022-11-05T04:54:14.646Z,9.82
2022-11-05T04:56:41.312Z,9.81
2022-11-05T04:59:09.410Z,9.81
2022-11-05T05:01:36.820Z,9.82
2022-11-05T05:04:03.895Z,9.81
2022-11-05T05:06:33.609Z,9.81
2022-11-05T05:09:04.308Z,9.80
2022-11-05T05:11:32.195Z,9.74
2022-11-05T05:14:03.390Z,9.79
2022-11-05T05:16:31.863Z,9.78
2022-11-05T05:19:00.043Z,9.81
2022-11-05T05:21:39.813Z,9.80
2022-11-05T05:24:13.067Z,9.80
2022-11-05T05:26:46.300Z,9.85
2022-11-05T05:29:18.982Z,9.85
2022-11-05T05:31:47.208Z,9.86
2022-11-05T05:34:15.467Z,9.90
2022-11-05T05:36:47.852Z,9.88
2022-11-05T05:39:18.728Z,9.89
2022-11-05T05:41:45.331Z,9.91
2022-11-05T05:44:12.259Z,9.90
2022-11-05T05:46:41.410Z,9.92
2022-11-05T05:49:17.377Z,9.98
2022-11-05T05:51:46.133Z,9.97
2022-11-05T05:54:14.202Z,10.01
2022-11-05T05:56:44.409Z,10.04
2022-11-05T05:59:15.488Z,10.06
2022-11-05T06:01:47.625Z,10.06
2022-11-05T06:04:16.478Z,10.09
2022-11-05T06:06:47.084Z,10.12
2022-11-05T06:09:16.810Z,10.14
2022-11-05T06:11:47.285Z,10.16
2022-11-05T06:14:14.782Z,10.17
2022-11-05T06:16:42.464Z,10.19
2022-11-05T06:19:10.059Z,10.25
2022-11-05T06:21:45.399Z,10.25
2022-11-05T06:24:12.850Z,10.24
2022-11-05T06:26:42.884Z,10.24
2022-11-05T06:29:10.911Z,10.27
2022-11-05T06:31:37.506Z,10.27
2022-11-05T06:34:04.879Z,10.25
2022-11-05T06:36:33.399Z,10.29
2022-11-05T06:39:02.838Z,10.29
2022-11-05T06:41:29.712Z,10.32
2022-11-05T06:44:00.641Z,10.35
2022-11-05T06:46:30.854Z,10.31
2022-11-05T06:48:57.424Z,10.26
2022-11-05T06:51:25.251Z,10.30
2022-11-05T06:53:55.334Z,10.19
2022-11-05T06:56:22.129Z,10.30
2022-11-05T06:59:15.266Z,10.32
2022-11-05T07:02:06.459Z,10.33
2022-11-05T07:04:42.397Z,10.35
2022-11-05T07:07:17.633Z,10.31
2022-11-05T07:09:46.032Z,10.42
2022-11-05T07:12:12.798Z,10.42
2022-11-05T07:14:40.687Z,10.46
2022-11-05T07:17:11.344Z,10.42
2022-11-05T07:20:00.887Z,10.42
2022-11-05T07:22:28.528Z,10.42
2022-11-05T07:25:03.557Z,10.48
2022-11-05T07:27:31.298Z,10.49
2022-11-05T07:30:01.191Z,10.56
2022-11-05T07:32:28.836Z,10.53
2022-11-05T07:34:59.440Z,10.52
2022-11-05T07:37:27.190Z,10.53
2022-11-05T07:39:54.422Z,10.53
2022-11-05T07:42:22.615Z,10.57
2022-11-05T07:44:49.449Z,10.56
2022-11-05T07:47:16.439Z,10.59
2022-11-05T07:49:43.665Z,10.59
2022-11-05T07:52:10.998Z,10.63
2022-11-05T07:54:38.243Z,10.62
2022-11-05T07:57:05.252Z,10.66
2022-11-05T07:59:35.543Z,10.71
2022-11-05T08:02:06.123Z,10.76
2022-11-05T08:04:38.531Z,10.81
2022-11-05T08:07:05.477Z,10.84
2022-11-05T08:09:33.212Z,10.87
2022-11-05T08:12:10.546Z,10.83
2022-11-05T08:14:38.396Z,10.82
2022-11-05T08:17:05.743Z,10.80
2022-11-05T08:19:33.168Z,10.83
2022-11-05T08:22:00.339Z,10.80
2022-11-05T08:24:27.554Z,10.75
2022-11-05T08:26:55.226Z,10.78
2022-11-05T08:29:22.914Z,10.85
2022-11-05T08:31:53.331Z,10.95
2022-11-05T08:34:20.244Z,10.92
2022-11-05T08:36:47.988Z,11.04
2022-11-05T08:39:21.263Z,11.03
2022-11-05T08:41:49.118Z,11.10
2022-11-05T08:44:16.248Z,11.09
2022-11-05T08:46:42.874Z,11.14
2022-11-05T08:49:09.626Z,11.10
2022-11-05T08:51:37.052Z,11.04
2022-11-05T08:54:05.619Z,11.11
2022-11-05T08:56:32.682Z,11.13
2022-11-05T08:59:01.368Z,11.13
2022-11-05T09:01:28.933Z,11.16
2022-11-05T09:04:00.786Z,11.18
2022-11-05T09:06:31.454Z,11.17
2022-11-05T09:08:58.337Z,11.18
2022-11-05T09:11:49.592Z,11.13
2022-11-05T09:14:16.353Z,11.12
2022-11-05T09:16:43.820Z,11.07
2022-11-05T09:19:18.238Z,11.14
2022-11-05T09:21:46.557Z,11.11
2022-11-05T09:24:30.967Z,11.04
2022-11-05T09:26:57.844Z,11.06
2022-11-05T09:29:25.488Z,11.06
2022-11-05T09:31:58.209Z,11.09
2022-11-05T09:34:28.401Z,11.08
2022-11-05T09:36:57.620Z,11.01
2022-11-05T09:39:24.708Z,11.01
2022-11-05T09:42:05.401Z,11.03
2022-11-05T09:44:43.708Z,11.06
2022-11-05T09:47:22.790Z,11.06
2022-11-05T09:49:53.902Z,11.04
2022-11-05T09:52:22.896Z,11.07
2022-11-05T09:54:52.452Z,11.15
2022-11-05T09:57:26.085Z,11.14
2022-11-05T09:59:57.955Z,11.10
2022-11-05T10:02:34.042Z,11.16
2022-11-05T10:05:09.991Z,11.21
2022-11-05T10:08:05.864Z,11.24
2022-11-05T10:10:57.015Z,11.30
2022-11-05T10:13:35.029Z,11.35
2022-11-05T10:16:12.504Z,11.38
2022-11-05T10:18:47.463Z,11.40
2022-11-05T10:21:37.578Z,11.41
2022-11-05T10:24:19.792Z,11.35
2022-11-05T10:26:56.066Z,11.35
2022-11-05T10:29:33.301Z,11.35
2022-11-05T10:32:07.407Z,11.32
2022-11-05T10:34:38.749Z,11.36
2022-11-05T10:37:06.626Z,11.36
2022-11-05T10:39:34.793Z,11.39
2022-11-05T10:42:11.786Z,11.39
2022-11-05T10:45:14.520Z,11.40
2022-11-05T10:47:50.265Z,11.44
2022-11-05T10:50:23.570Z,11.46
2022-11-05T10:52:59.799Z,11.45
2022-11-05T10:55:37.445Z,11.48
2022-11-05T10:58:20.419Z,11.37
2022-11-05T11:00:54.373Z,11.38
2022-11-05T11:03:42.221Z,11.37
2022-11-05T11:06:32.794Z,11.40
2022-11-05T11:09:07.290Z,11.39
2022-11-05T11:11:42.626Z,11.39
2022-11-05T11:14:12.913Z,11.40
2022-11-05T11:16:43.391Z,11.42
2022-11-05T11:19:22.475Z,11.41
2022-11-05T11:22:09.642Z,11.45
2022-11-05T11:24:42.497Z,11.43
2022-11-05T11:27:17.756Z,11.42
2022-11-05T11:29:56.843Z,11.42
2022-11-05T11:32:39.489Z,11.47
2022-11-05T11:35:18.963Z,11.49
2022-11-05T11:37:48.851Z,11.56
2022-11-05T11:40:17.728Z,11.56
2022-11-05T11:42:56.919Z,11.58
2022-11-05T11:45:47.162Z,11.58
2022-11-05T11:48:19.321Z,11.54
2022-11-05T11:50:50.196Z,11.57
2022-11-05T11:53:20.417Z,11.61
2022-11-05T11:56:06.157Z,11.62
2022-11-05T11:58:44.530Z,11.67
2022-11-05T12:01:51.797Z,11.68
2022-11-05T12:04:41.177Z,11.73
2022-11-05T12:07:27.127Z,11.72
2022-11-05T12:10:01.861Z,11.73
2022-11-05T12:13:01.825Z,11.76
2022-11-05T12:15:53.476Z,11.83
2022-11-05T12:18:42.363Z,11.80
2022-11-05T12:21:13.501Z,11.84
2022-11-05T12:23:54.819Z,11.95
2022-11-05T12:26:40.919Z,12.00
2022-11-05T12:29:36.436Z,12.01
2022-11-05T12:32:28.789Z,11.96
2022-11-05T12:34:56.344Z,11.92
2022-11-05T12:37:41.414Z,11.88
2022-11-05T12:40:30.196Z,11.95
2022-11-05T12:43:32.809Z,11.91
2022-11-05T12:46:26.764Z,11.90
2022-11-05T12:49:15.831Z,11.84
2022-11-05T12:51:53.136Z,11.85
2022-11-05T12:54:26.716Z,11.93
2022-11-05T12:57:01.417Z,11.84
2022-11-05T12:59:46.982Z,11.87
2022-11-05T13:02:23.685Z,11.80
2022-11-05T13:05:04.747Z,11.84
2022-11-05T13:07:37.686Z,11.84
2022-11-05T13:10:36.869Z,11.72
2022-11-05T13:13:32.675Z,11.78
2022-11-05T13:16:07.493Z,11.68
2022-11-05T13:18:53.998Z,11.69
2022-11-05T13:21:29.539Z,11.72
2022-11-05T13:24:27.377Z,11.76
2022-11-05T13:27:08.325Z,11.78
2022-11-05T13:29:54.684Z,11.77
2022-11-05T13:32:24.583Z,11.79
2022-11-05T13:34:55.982Z,11.75
2022-11-05T13:37:56.174Z,11.75
2022-11-05T13:40:42.096Z,11.75
2022-11-05T13:43:36.446Z,11.68
2022-11-05T13:46:32.029Z,11.73
2022-11-05T13:49:16.990Z,11.68
2022-11-05T13:51:52.354Z,11.68
2022-11-05T13:54:38.341Z,11.68
2022-11-05T13:57:14.446Z,11.64
2022-11-05T14:00:32.688Z,11.65
2022-11-05T14:03:15.471Z,11.62
2022-11-05T14:05:43.323Z,11.61
2022-11-05T14:08:24.426Z,11.61
2022-11-05T14:11:00.449Z,11.61
2022-11-05T14:13:38.420Z,11.62
2022-11-05T14:16:06.005Z,11.58
2022-11-05T14:19:06.448Z,11.57
2022-11-05T14:21:52.267Z,11.57
2022-11-05T14:24:19.588Z,11.54
2022-11-05T14:27:06.706Z,11.40
2022-11-05T14:29:42.615Z,11.52
2022-11-05T14:32:21.505Z,11.46
2022-11-05T14:35:17.908Z,11.44
2022-11-05T14:37:59.551Z,11.52
2022-11-05T14:40:44.549Z,11.45
2022-11-05T14:43:15.022Z,11.52
2022-11-05T14:45:52.875Z,11.48
2022-11-05T14:48:26.684Z,11.45
2022-11-05T14:50:53.591Z,11.48
2022-11-05T14:53:33.058Z,11.46
2022-11-05T14:56:16.242Z,11.43
2022-11-05T14:58:44.602Z,11.43
2022-11-05T15:01:14.306Z,11.39
2022-11-05T15:03:47.179Z,11.42
2022-11-05T15:06:22.285Z,11.39
2022-11-05T15:08:53.548Z,11.37
2022-11-05T15:11:22.215Z,11.37
2022-11-05T15:13:55.665Z,11.33
2022-11-05T15:16:31.360Z,11.23
2022-11-05T15:18:58.860Z,11.24
2022-11-05T15:21:28.548Z,11.22
2022-11-05T15:23:58.022Z,11.22
2022-11-05T15:26:43.799Z,11.19
2022-11-05T15:29:18.874Z,11.18
2022-11-05T15:31:50.715Z,11.22
2022-11-05T15:34:31.285Z,11.17
2022-11-05T15:37:20.553Z,11.15
2022-11-05T15:39:50.598Z,11.11
2022-11-05T15:42:23.695Z,11.07
2022-11-05T15:44:58.243Z,11.09
2022-11-05T15:47:31.138Z,11.09
2022-11-05T15:50:01.620Z,11.07
2022-11-05T15:52:40.455Z,11.05
2022-11-05T15:55:20.567Z,11.02
2022-11-05T15:57:51.608Z,11.05
2022-11-05T16:00:25.204Z,11.04
2022-11-05T16:03:00.759Z,11.03
2022-11-05T16:05:32.083Z,11.06
2022-11-05T16:08:00.776Z,11.05
2022-11-05T16:10:34.127Z,11.08
2022-11-05T16:13:28.732Z,11.07
2022-11-05T16:15:58.239Z,11.07
2022-11-05T16:18:32.838Z,11.06
2022-11-05T16:21:06.181Z,11.07
2022-11-05T16:24:01.367Z,11.06
2022-11-05T16:29:31.477Z,11.05
2022-11-05T16:32:01.877Z,11.06
2022-11-05T16:34:32.312Z,11.02
2022-11-05T16:36:59.851Z,11.07
2022-11-05T16:39:28.098Z,11.08
2022-11-05T16:41:55.475Z,11.10
2022-11-05T16:44:23.247Z,11.09
2022-11-05T16:46:52.724Z,11.09
2022-11-05T16:49:19.785Z,11.10
2022-11-05T16:51:46.779Z,11.08
2022-11-05T16:54:13.772Z,11.10
2022-11-05T16:56:42.716Z,11.10
2022-11-05T16:59:18.259Z,11.12
2022-11-05T17:01:46.283Z,11.10
2022-11-05T17:04:14.873Z,11.13
2022-11-05T17:06:43.829Z,11.11
2022-11-05T17:09:14.016Z,11.11
2022-11-05T17:11:40.603Z,11.13
2022-11-05T17:14:12.420Z,11.13
2022-11-05T17:16:41.405Z,11.13
2022-11-05T17:19:18.158Z,11.12
2022-11-05T17:21:46.570Z,11.12
2022-11-05T17:24:13.450Z,11.11
2022-11-05T17:26:41.223Z,11.15
2022-11-05T17:29:08.374Z,11.10
2022-11-05T17:31:39.101Z,11.04
2022-11-05T17:34:06.379Z,11.09
2022-11-05T17:36:34.601Z,11.08
2022-11-05T17:39:02.103Z,11.10
2022-11-05T17:41:32.367Z,11.10
2022-11-05T17:43:59.383Z,11.14
2022-11-05T17:46:26.606Z,11.09
2022-11-05T17:48:54.380Z,11.09
2022-11-05T17:51:23.809Z,11.00
2022-11-05T17:53:53.436Z,11.04
2022-11-05T17:56:32.508Z,11.00
2022-11-05T17:59:06.007Z,11.01
2022-11-05T18:01:42.670Z,11.02
2022-11-05T18:04:10.789Z,11.00
2022-11-05T18:06:40.540Z,10.94
2022-11-05T18:09:08.996Z,10.96
2022-11-05T18:11:37.120Z,10.97
2022-11-05T18:14:04.630Z,10.94
2022-11-05T18:16:33.079Z,10.91
2022-11-05T18:19:00.194Z,10.97
2022-11-05T18:21:27.117Z,10.87
2022-11-05T18:23:54.131Z,10.90
2022-11-05T18:26:21.398Z,10.89
2022-11-05T18:28:48.370Z,10.89
2022-11-05T18:31:20.859Z,10.85
2022-11-05T18:33:48.983Z,10.94
2022-11-05T18:36:30.164Z,10.86
2022-11-05T18:39:05.136Z,10.84
2022-11-05T18:41:35.273Z,10.85
2022-11-05T18:44:03.828Z,10.84
2022-11-05T18:49:19.730Z,10.80
2022-11-05T18:51:46.786Z,10.77
2022-11-05T18:54:13.792Z,10.79
2022-11-05T18:56:45.458Z,10.79
2022-11-05T18:59:36.011Z,10.79
2022-11-05T19:02:03.556Z,10.81
2022-11-05T19:04:30.753Z,10.82
2022-11-05T19:07:04.173Z,10.84
2022-11-05T19:09:32.170Z,10.84
2022-11-05T19:11:58.831Z,10.83
2022-11-05T19:14:25.582Z,10.86
2022-11-05T19:16:55.051Z,10.85
2022-11-05T19:19:23.238Z,10.85
2022-11-05T19:21:53.519Z,10.80
2022-11-05T19:24:20.618Z,10.82
2022-11-05T19:26:48.837Z,10.83
2022-11-05T19:29:15.470Z,10.85
2022-11-05T19:31:43.355Z,10.86
2022-11-05T19:34:10.076Z,10.88
2022-11-05T19:36:38.055Z,10.87
2022-11-05T19:39:09.149Z,10.88
2022-11-05T19:41:36.663Z,10.81
2022-11-05T19:44:04.332Z,10.82
2022-11-05T19:46:32.233Z,10.78
2022-11-05T19:49:02.628Z,10.79
2022-11-05T19:51:31.849Z,10.80
2022-11-05T19:54:03.788Z,10.75
2022-11-05T19:56:34.036Z,10.76
2022-11-05T19:59:03.089Z,10.77
2022-11-05T20:01:31.564Z,10.77
2022-11-05T20:04:06.243Z,10.72
2022-11-05T20:06:38.694Z,10.74
2022-11-05T20:09:21.530Z,10.72
2022-11-05T20:11:56.677Z,10.67
2022-11-05T20:14:25.202Z,10.67
2022-11-05T20:16:55.745Z,10.63
2022-11-05T20:19:22.964Z,10.62
2022-11-05T20:21:50.560Z,10.60
2022-11-05T20:24:24.905Z,10.58
2022-11-05T20:26:56.833Z,10.56
2022-11-05T20:29:30.528Z,10.56
2022-11-05T20:32:03.556Z,10.49
2022-11-05T20:34:32.221Z,10.48
2022-11-05T20:37:00.285Z,10.47
2022-11-05T20:39:27.633Z,10.40
2022-11-05T20:41:56.769Z,10.38
2022-11-05T20:44:25.069Z,10.42
2022-11-05T20:46:52.672Z,10.37
2022-11-05T20:49:25.122Z,10.37
2022-11-05T20:51:53.417Z,10.38
2022-11-05T20:54:22.894Z,10.37
2022-11-05T20:56:50.125Z,10.36
2022-11-05T20:59:16.799Z,10.35
2022-11-05T21:01:44.474Z,10.32
2022-11-05T21:04:13.176Z,10.33
2022-11-05T21:06:40.671Z,10.31
2022-11-05T21:09:08.293Z,10.32
2022-11-05T21:11:59.785Z,10.34
2022-11-05T21:14:27.261Z,10.35
2022-11-05T21:16:58.904Z,10.35
2022-11-05T21:19:29.128Z,10.32
2022-11-05T21:21:55.975Z,10.31
2022-11-05T21:24:22.843Z,10.30
2022-11-05T21:26:51.347Z,10.30
2022-11-05T21:29:21.153Z,10.21
2022-11-05T21:31:48.884Z,10.31
2022-11-05T21:34:17.608Z,10.32
2022-11-05T21:36:49.279Z,10.32
2022-11-05T21:39:17.381Z,10.30
2022-11-05T21:41:44.771Z,10.38
2022-11-05T21:44:11.951Z,10.34
2022-11-05T21:46:40.256Z,10.34
2022-11-05T21:49:09.623Z,10.35
2022-11-05T21:51:56.670Z,10.38
2022-11-05T21:54:44.681Z,10.38
2022-11-05T21:57:36.663Z,10.40
2022-11-05T22:00:06.639Z,10.34
2022-11-05T22:02:34.068Z,10.39
2022-11-05T22:05:03.153Z,10.43
2022-11-05T22:07:35.497Z,10.42
2022-11-05T22:10:05.878Z,10.45
2022-11-05T22:12:33.223Z,10.45
2022-11-05T22:15:00.566Z,10.47
2022-11-05T22:17:28.046Z,10.45
2022-11-05T22:19:55.704Z,10.38
2022-11-05T22:22:23.010Z,10.43
2022-11-05T22:24:50.393Z,10.45
2022-11-05T22:27:21.425Z,10.45
2022-11-05T22:29:49.275Z,10.43
2022-11-05T22:32:18.280Z,10.45
2022-11-05T22:34:52.122Z,10.44
2022-11-05T22:37:24.105Z,10.40
2022-11-05T22:39:52.310Z,10.43
2022-11-05T22:42:19.710Z,10.42
2022-11-05T22:44:46.574Z,10.39
2022-11-05T22:47:14.292Z,10.44
2022-11-05T22:49:41.581Z,10.39
2022-11-05T22:52:08.528Z,10.34
2022-11-05T22:54:39.197Z,10.37
2022-11-05T22:57:07.541Z,10.40
2022-11-05T22:59:35.168Z,10.39
2022-11-05T23:02:08.261Z,10.42
2022-11-05T23:04:37.842Z,10.41
2022-11-05T23:07:27.711Z,10.33
2022-11-05T23:10:13.772Z,10.36
2022-11-05T23:12:43.569Z,10.32
2022-11-05T23:15:31.263Z,10.44
2022-11-05T23:18:19.872Z,10.46
2022-11-05T23:21:20.556Z,10.33
2022-11-05T23:24:04.744Z,10.35
2022-11-05T23:26:52.792Z,10.49
2022-11-05T23:29:25.325Z,10.42
2022-11-05T23:32:11.872Z,10.44
2022-11-05T23:34:39.206Z,10.49
2022-11-05T23:37:25.270Z,10.38
2022-11-05T23:39:52.628Z,10.44
2022-11-05T23:42:38.459Z,10.41
2022-11-05T23:45:25.089Z,10.45
2022-11-05T23:48:10.922Z,10.42
2022-11-05T23:50:40.342Z,10.47
2022-11-05T23:53:09.532Z,10.40
2022-11-05T23:55:37.670Z,10.48
2022-11-05T23:58:08.510Z,10.45
